createdAt,value
2023-09-17T00:01:00.533Z,100372.63
2023-09-17T00:04:02.314Z,100367.16
2023-09-17T00:07:04.127Z,100361.75
2023-09-17T00:10:06.601Z,100359.06
2023-09-17T00:13:08.448Z,100364.47
2023-09-17T00:16:11.886Z,100361.88
2023-09-17T00:19:14.356Z,100361.97
2023-09-17T00:22:16.292Z,100360.19
2023-09-17T00:25:18.078Z,100355.41
2023-09-17T00:28:19.891Z,100350.91
2023-09-17T00:31:23.206Z,100350.84
2023-09-17T00:34:24.941Z,100345.47
2023-09-17T00:37:26.750Z,100337.69
2023-09-17T00:40:29.944Z,100336.94
2023-09-17T00:43:31.719Z,100331.47
2023-09-17T00:46:34.985Z,100339.50
2023-09-17T00:49:37.227Z,100345.06
2023-09-17T00:52:39.479Z,100335.34
2023-09-17T00:55:41.655Z,100339.97
2023-09-17T00:58:45.260Z,100347.78
2023-09-17T01:01:48.492Z,100342.66
2023-09-17T01:04:53.291Z,100332.69
2023-09-17T01:07:55.388Z,100336.22
2023-09-17T01:10:58.934Z,100341.69
2023-09-17T01:14:00.961Z,100343.16
2023-09-17T01:17:04.802Z,100345.06
2023-09-17T01:20:08.267Z,100346.03
2023-09-17T01:23:16.899Z,100344.28
2023-09-17T01:26:25.245Z,100342.56
2023-09-17T01:29:32.093Z,100337.84
2023-09-17T01:32:33.775Z,100338.63
2023-09-17T01:35:35.475Z,100336.81
2023-09-17T01:38:42.221Z,100342.03
2023-09-17T01:41:45.665Z,100330.38
2023-09-17T01:44:48.856Z,100334.09
2023-09-17T01:47:51.914Z,100323.47
2023-09-17T01:50:54.076Z,100319.81
2023-09-17T01:53:56.103Z,100326.06
2023-09-17T01:56:57.790Z,100321.06
2023-09-17T02:00:01.235Z,100315.06
2023-09-17T02:03:03.177Z,100317.22
2023-09-17T02:06:04.929Z,100315.28
2023-09-17T02:09:06.637Z,100315.31
2023-09-17T02:12:08.320Z,100312.63
2023-09-17T02:15:11.572Z,100308.19
2023-09-17T02:18:13.296Z,100310.88
2023-09-17T02:21:14.955Z,100302.09
2023-09-17T02:24:16.630Z,100299.44
2023-09-17T02:27:18.287Z,100299.47
2023-09-17T02:30:21.549Z,100300.31
2023-09-17T02:33:23.256Z,100300.31
2023-09-17T02:36:24.999Z,100299.63
2023-09-17T02:39:26.697Z,100299.41
2023-09-17T02:42:28.378Z,100297.97
2023-09-17T02:45:31.386Z,100293.28
2023-09-17T02:48:33.467Z,100284.72
2023-09-17T02:51:35.242Z,100282.91
2023-09-17T02:54:36.959Z,100294.44
2023-09-17T02:57:38.705Z,100290.06
2023-09-17T03:00:42.040Z,100284.97
2023-09-17T03:03:43.538Z,100296.75
2023-09-17T03:06:45.230Z,100296.63
2023-09-17T03:09:46.961Z,100295.72
2023-09-17T03:12:48.680Z,100292.13
2023-09-17T03:15:56.524Z,100297.50
2023-09-17T03:18:58.301Z,100304.72
2023-09-17T03:22:00.508Z,100303.91
2023-09-17T03:25:04.441Z,100303.16
2023-09-17T03:28:06.941Z,100300.59
2023-09-17T03:31:10.047Z,100302.47
2023-09-17T03:34:11.911Z,100299.72
2023-09-17T03:37:13.598Z,100309.59
2023-09-17T03:40:16.019Z,100305.25
2023-09-17T03:43:17.876Z,100306.97
2023-09-17T03:46:21.065Z,100310.66
2023-09-17T03:49:22.900Z,100313.44
2023-09-17T03:52:24.901Z,100301.16
2023-09-17T03:55:26.934Z,100315.50
2023-09-17T03:58:28.759Z,100314.59
2023-09-17T04:01:32.660Z,100310.13
2023-09-17T04:04:34.384Z,100311.78
2023-09-17T04:07:36.236Z,100310.75
2023-09-17T04:10:37.961Z,100310.56
2023-09-17T04:13:39.766Z,100318.81
2023-09-17T04:16:42.942Z,100312.53
2023-09-17T04:19:44.829Z,100323.34
2023-09-17T04:22:47.514Z,100328.81
2023-09-17T04:25:49.280Z,100331.47
2023-09-17T04:28:51.076Z,100335.88
2023-09-17T04:31:54.220Z,100338.66
2023-09-17T04:34:56.121Z,100334.16
2023-09-17T04:37:57.939Z,100339.53
2023-09-17T04:41:00.432Z,100339.47
2023-09-17T04:44:02.257Z,100339.38
2023-09-17T04:47:05.763Z,100347.56
2023-09-17T04:50:09.470Z,100350.06
2023-09-17T04:53:11.216Z,100351.78
2023-09-17T04:56:12.957Z,100349.94
2023-09-17T04:59:14.675Z,100350.81
2023-09-17T05:02:17.876Z,100352.38
2023-09-17T05:05:21.563Z,100355.97
2023-09-17T05:08:25.391Z,100353.13
2023-09-17T05:11:29.160Z,100362.09
2023-09-17T05:14:30.875Z,100361.03
2023-09-17T05:17:33.978Z,100361.78
2023-09-17T05:20:35.683Z,100366.13
2023-09-17T05:23:37.966Z,100361.59
2023-09-17T05:26:39.733Z,100360.56
2023-09-17T05:29:41.633Z,100367.19
2023-09-17T05:32:44.822Z,100369.75
2023-09-17T05:35:46.575Z,100380.19
2023-09-17T05:38:48.724Z,100384.53
2023-09-17T05:41:50.443Z,100384.09
2023-09-17T05:44:52.139Z,100388.19
2023-09-17T05:47:55.263Z,100382.19
2023-09-17T05:50:59.811Z,100385.78
2023-09-17T05:54:01.899Z,100402.41
2023-09-17T05:57:03.665Z,100397.06
2023-09-17T06:00:08.135Z,100394.38
2023-09-17T06:03:11.367Z,100397.28
2023-09-17T06:06:12.922Z,100395.66
2023-09-17T06:09:14.605Z,100390.91
2023-09-17T06:12:16.286Z,100399.84
2023-09-17T06:15:18.138Z,100395.22
2023-09-17T06:18:21.179Z,100399.31
2023-09-17T06:21:22.904Z,100395.47
2023-09-17T06:24:24.616Z,100404.28
2023-09-17T06:27:26.314Z,100404.19
2023-09-17T06:30:27.945Z,100403.75
2023-09-17T06:33:31.540Z,100400.56
2023-09-17T06:36:33.288Z,100400.72
2023-09-17T06:39:35.850Z,100404.13
2023-09-17T06:42:37.659Z,100410.84
2023-09-17T06:45:39.430Z,100398.25
2023-09-17T06:48:42.443Z,100399.59
2023-09-17T06:51:44.079Z,100400.03
2023-09-17T06:54:45.780Z,100403.91
2023-09-17T06:57:47.446Z,100403.34
2023-09-17T07:00:49.172Z,100396.50
2023-09-17T07:03:52.420Z,100398.56
2023-09-17T07:06:54.377Z,100414.44
2023-09-17T07:09:56.493Z,100413.75
2023-09-17T07:12:58.140Z,100409.91
2023-09-17T07:15:59.797Z,100418.63
2023-09-17T07:19:03.081Z,100416.34
2023-09-17T07:22:04.708Z,100429.38
2023-09-17T07:25:06.701Z,100424.72
2023-09-17T07:28:08.691Z,100424.91
2023-09-17T07:31:10.555Z,100417.28
2023-09-17T07:34:13.693Z,100422.09
2023-09-17T07:37:15.405Z,100421.47
2023-09-17T07:40:17.209Z,100421.72
2023-09-17T07:43:18.896Z,100423.22
2023-09-17T07:46:20.640Z,100420.94
2023-09-17T07:49:23.777Z,100421.41
2023-09-17T07:52:25.492Z,100419.81
2023-09-17T07:55:27.361Z,100420.94
2023-09-17T07:58:29.084Z,100425.66
2023-09-17T08:01:30.862Z,100427.53
2023-09-17T08:04:34.035Z,100432.69
2023-09-17T08:07:36.058Z,100436.13
2023-09-17T08:10:38.101Z,100430.84
2023-09-17T08:13:39.800Z,100440.59
2023-09-17T08:16:41.803Z,100441.59
2023-09-17T08:19:44.964Z,100437.59
2023-09-17T08:22:46.567Z,100433.06
2023-09-17T08:25:48.337Z,100434.56
2023-09-17T08:28:50.198Z,100426.94
2023-09-17T08:31:51.875Z,100427.34
2023-09-17T08:34:55.084Z,100417.34
2023-09-17T08:37:56.639Z,100432.03
2023-09-17T08:40:59.531Z,100423.38
2023-09-17T08:44:02.427Z,100428.44
2023-09-17T08:47:04.666Z,100430.91
2023-09-17T08:50:09.073Z,100429.94
2023-09-17T08:53:13.779Z,100430.00
2023-09-17T08:56:18.011Z,100425.19
2023-09-17T08:59:26.431Z,100425.47
2023-09-17T09:02:33.073Z,100420.41
2023-09-17T09:05:37.065Z,100424.06
2023-09-17T09:08:39.726Z,100429.94
2023-09-17T09:11:41.575Z,100432.28
2023-09-17T09:14:44.343Z,100425.53
2023-09-17T09:17:46.139Z,100422.69
2023-09-17T09:20:49.143Z,100418.69
2023-09-17T09:23:51.113Z,100412.50
2023-09-17T09:26:53.188Z,100420.84
2023-09-17T09:29:54.901Z,100417.94
2023-09-17T09:32:57.690Z,100421.94
2023-09-17T09:36:01.157Z,100416.91
2023-09-17T09:39:03.351Z,100419.50
2023-09-17T09:42:06.372Z,100419.63
2023-09-17T09:45:13.492Z,100416.72
2023-09-17T09:48:15.184Z,100408.06
2023-09-17T09:51:19.399Z,100409.16
2023-09-17T09:54:21.074Z,100402.66
2023-09-17T09:57:23.692Z,100410.66
2023-09-17T10:00:25.884Z,100408.47
2023-09-17T10:03:27.672Z,100413.59
2023-09-17T10:06:30.829Z,100414.63
2023-09-17T10:09:32.577Z,100414.81
2023-09-17T10:12:34.811Z,100415.06
2023-09-17T10:15:37.703Z,100403.59
2023-09-17T10:18:40.800Z,100413.31
2023-09-17T10:21:43.892Z,100400.13
2023-09-17T10:24:46.145Z,100402.88
2023-09-17T10:27:49.759Z,100397.59
2023-09-17T10:30:52.308Z,100398.78
2023-09-17T10:33:54.564Z,100399.22
2023-09-17T10:36:59.104Z,100400.72
2023-09-17T10:40:02.202Z,100390.97
2023-09-17T10:43:06.299Z,100385.19
2023-09-17T10:46:08.112Z,100381.59
2023-09-17T10:49:11.130Z,100387.84
2023-09-17T10:52:15.512Z,100384.28
2023-09-17T10:55:17.822Z,100386.25
2023-09-17T10:58:25.903Z,100376.25
2023-09-17T11:01:30.660Z,100372.84
2023-09-17T11:04:33.129Z,100372.13
2023-09-17T11:07:36.821Z,100373.16
2023-09-17T11:10:38.802Z,100368.72
2023-09-17T11:13:40.612Z,100366.81
2023-09-17T11:16:42.516Z,100366.44
2023-09-17T11:19:44.420Z,100368.06
2023-09-17T11:22:52.245Z,100360.56
2023-09-17T11:25:56.102Z,100363.22
2023-09-17T11:28:58.644Z,100365.56
2023-09-17T11:32:01.969Z,100358.72
2023-09-17T11:35:04.824Z,100346.38
2023-09-17T11:38:08.252Z,100349.22
2023-09-17T11:41:18.881Z,100345.59
2023-09-17T11:44:21.763Z,100344.97
2023-09-17T11:47:24.335Z,100344.09
2023-09-17T11:50:27.304Z,100349.72
2023-09-17T12:30:50.900Z,100319.72
2023-09-17T12:33:53.339Z,100313.06
2023-09-17T12:36:55.772Z,100322.09
2023-09-17T12:39:57.929Z,100320.09
2023-09-17T12:42:59.940Z,100316.06
2023-09-17T12:46:03.179Z,100307.41
2023-09-17T12:49:07.020Z,100313.81
2023-09-17T12:52:09.059Z,100315.78
2023-09-17T12:55:11.500Z,100301.06
2023-09-17T12:58:13.935Z,100299.41
2023-09-17T13:01:18.051Z,100300.38
2023-09-17T13:04:20.092Z,100304.31
2023-09-17T13:07:23.633Z,100301.03
2023-09-17T13:10:27.477Z,100296.25
2023-09-17T13:13:29.712Z,100289.59
2023-09-17T13:16:33.200Z,100287.19
2023-09-17T13:19:36.817Z,100279.97
2023-09-17T13:22:41.727Z,100277.91
2023-09-17T13:25:44.586Z,100269.25
2023-09-17T13:28:52.371Z,100272.97
2023-09-17T13:31:56.722Z,100270.00
2023-09-17T13:34:59.809Z,100273.09
2023-09-17T13:38:02.716Z,100257.06
2023-09-17T13:41:05.256Z,100260.56
2023-09-17T13:44:08.137Z,100262.81
2023-09-17T13:47:13.111Z,100274.31
2023-09-17T13:50:15.985Z,100264.91
2023-09-17T13:53:19.133Z,100270.16
2023-09-17T13:56:21.478Z,100267.59
2023-09-17T13:59:24.217Z,100256.16
2023-09-17T14:02:28.253Z,100264.84
2023-09-17T14:05:30.838Z,100259.00
2023-09-17T14:08:33.441Z,100262.69
2023-09-17T14:11:36.347Z,100257.25
2023-09-17T14:14:37.922Z,100251.53
2023-09-17T14:17:41.743Z,100250.16
2023-09-17T14:20:43.889Z,100252.47
2023-09-17T14:23:45.864Z,100252.56
2023-09-17T14:26:48.751Z,100253.34
2023-09-17T14:29:51.114Z,100247.47
2023-09-17T14:32:56.024Z,100238.19
2023-09-17T14:35:58.351Z,100240.03
2023-09-17T14:39:01.147Z,100241.56
2023-09-17T14:42:04.687Z,100246.59
2023-09-17T14:45:08.146Z,100239.41
2023-09-17T14:48:12.751Z,100239.22
2023-09-17T14:51:14.996Z,100235.69
2023-09-17T14:54:17.164Z,100236.81
2023-09-17T14:57:20.033Z,100241.25
2023-09-17T15:00:23.286Z,100230.47
2023-09-17T15:03:27.735Z,100233.53
2023-09-17T15:06:29.635Z,100238.00
2023-09-17T15:09:32.477Z,100230.94
2023-09-17T15:12:35.239Z,100238.22
2023-09-17T15:15:39.336Z,100235.94
2023-09-17T15:18:43.334Z,100245.34
2023-09-17T15:21:45.807Z,100238.19
2023-09-17T15:24:48.015Z,100246.81
2023-09-17T15:27:50.796Z,100233.50
2023-09-17T15:30:53.317Z,100237.53
2023-09-17T15:33:57.856Z,100231.09
2023-09-17T15:37:00.648Z,100226.53
2023-09-17T15:40:02.924Z,100214.22
2023-09-17T15:43:05.351Z,100227.16
2023-09-17T15:46:08.660Z,100220.31
2023-09-17T15:49:13.240Z,100226.09
2023-09-17T15:52:15.739Z,100222.13
2023-09-17T15:55:19.381Z,100214.41
2023-09-17T15:58:21.670Z,100226.59
2023-09-17T16:01:24.205Z,100221.47
2023-09-17T16:04:28.804Z,100224.47
2023-09-17T16:07:31.144Z,100221.50
2023-09-17T16:10:33.228Z,100222.69
2023-09-17T16:13:35.617Z,100219.63
2023-09-17T16:16:37.946Z,100220.34
2023-09-17T16:19:53.650Z,100231.03
2023-09-17T16:22:56.078Z,100227.97
2023-09-17T16:25:57.833Z,100229.53
2023-09-17T16:29:00.186Z,100232.88
2023-09-17T16:32:02.105Z,100232.69
2023-09-17T16:35:07.402Z,100231.66
2023-09-17T16:38:09.248Z,100247.59
2023-09-17T16:41:12.656Z,100245.38
2023-09-17T16:44:15.092Z,100237.09
2023-09-17T16:47:17.820Z,100238.00
2023-09-17T16:50:22.309Z,100243.19
2023-09-17T16:53:24.962Z,100244.94
2023-09-17T16:56:27.113Z,100244.41
2023-09-17T16:59:29.213Z,100239.78
2023-09-17T17:02:32.466Z,100246.13
2023-09-17T17:11:57.309Z,100246.19
2023-09-17T17:15:01.927Z,100253.69
2023-09-17T17:18:04.210Z,100255.91
2023-09-17T17:21:06.625Z,100256.25
2023-09-17T17:24:09.214Z,100258.34
2023-09-17T17:27:13.154Z,100267.13
2023-09-17T17:30:16.732Z,100257.69
2023-09-17T17:33:19.760Z,100258.94
2023-09-17T17:36:23.205Z,100264.09
2023-09-17T17:39:27.333Z,100261.88
2023-09-17T17:42:32.330Z,100267.84
2023-09-17T17:45:36.912Z,100265.47
2023-09-17T17:48:43.756Z,100272.38
2023-09-17T17:51:47.404Z,100270.16
2023-09-17T17:55:03.774Z,100266.69
2023-09-17T17:58:10.740Z,100283.84
2023-09-17T18:01:15.408Z,100272.53
2023-09-17T18:04:41.278Z,100286.56
2023-09-17T18:07:48.369Z,100276.84
2023-09-17T18:10:54.749Z,100289.84
2023-09-17T18:14:04.217Z,100293.50
2023-09-17T18:21:26.365Z,100295.56
2023-09-17T18:24:40.406Z,100304.06
2023-09-17T18:28:06.439Z,100311.78
2023-09-17T18:31:25.000Z,100312.75
2023-09-17T18:34:46.973Z,100318.53
2023-09-17T18:37:49.869Z,100314.66
2023-09-17T18:40:54.164Z,100320.06
2023-09-17T18:43:58.898Z,100323.06
2023-09-17T18:47:06.354Z,100323.78
2023-09-17T18:50:11.060Z,100324.59
2023-09-17T18:53:15.488Z,100328.41
2023-09-17T18:56:19.113Z,100328.47
2023-09-17T18:59:22.527Z,100327.94
2023-09-17T19:02:28.018Z,100326.44
2023-09-17T19:05:34.766Z,100330.16
2023-09-17T19:08:38.671Z,100331.03
2023-09-17T19:11:41.446Z,100332.50
2023-09-17T19:14:44.930Z,100328.44
2023-09-17T19:17:50.065Z,100333.22
2023-09-17T19:21:06.898Z,100333.22
2023-09-17T19:24:09.791Z,100333.00
2023-09-17T19:27:12.482Z,100339.31
2023-09-17T19:30:15.888Z,100338.28
2023-09-17T19:33:22.413Z,100340.47
2023-09-17T19:36:25.478Z,100341.28
2023-09-17T19:39:28.718Z,100333.22
2023-09-17T19:42:31.246Z,100331.91
2023-09-17T19:45:33.816Z,100334.13
2023-09-17T19:48:45.921Z,100325.78
2023-09-17T19:51:50.428Z,100333.84
2023-09-17T19:54:53.819Z,100336.75
2023-09-17T19:57:57.095Z,100329.03
2023-09-17T20:01:00.015Z,100333.19
2023-09-17T20:04:05.705Z,100325.44
2023-09-17T20:07:11.594Z,100324.78
2023-09-17T20:10:17.387Z,100325.66
2023-09-17T20:13:19.738Z,100325.59
2023-09-17T20:16:22.083Z,100322.22
2023-09-17T20:19:25.774Z,100327.06
2023-09-17T20:22:29.859Z,100323.69
2023-09-17T20:25:32.133Z,100334.31
2023-09-17T20:28:35.163Z,100335.81
2023-09-17T20:31:37.050Z,100329.72
2023-09-17T20:34:41.016Z,100322.84
2023-09-17T20:37:43.810Z,100325.13
2023-09-17T20:40:46.623Z,100329.94
2023-09-17T20:43:48.366Z,100334.06
2023-09-17T20:46:50.235Z,100324.34
2023-09-17T20:49:54.129Z,100331.38
2023-09-17T20:52:55.972Z,100325.72
2023-09-17T20:55:57.670Z,100328.13
2023-09-17T20:58:59.922Z,100327.25
2023-09-17T21:02:01.812Z,100334.97
2023-09-17T21:05:05.625Z,100338.16
2023-09-17T21:08:07.342Z,100342.72
2023-09-17T21:11:09.142Z,100336.78
2023-09-17T21:14:10.965Z,100345.91
2023-09-17T21:17:12.760Z,100332.47
2023-09-17T21:20:16.268Z,100330.59
2023-09-17T21:23:18.002Z,100332.56
2023-09-17T21:26:19.809Z,100329.03
2023-09-17T21:29:21.740Z,100315.09
2023-09-17T21:32:23.744Z,100316.91
2023-09-17T21:35:26.880Z,100321.50
2023-09-17T21:38:28.708Z,100316.31
2023-09-17T21:41:30.546Z,100315.88
2023-09-17T21:44:32.257Z,100314.53
2023-09-17T21:47:34.013Z,100313.72
2023-09-17T21:50:37.145Z,100309.44
2023-09-17T21:53:38.841Z,100314.44
2023-09-17T21:56:40.557Z,100311.63
2023-09-17T21:59:42.296Z,100308.59
2023-09-17T22:02:44.099Z,100306.72
2023-09-17T22:05:47.617Z,100312.53
2023-09-17T22:08:49.369Z,100306.91
2023-09-17T22:11:52.015Z,100304.16
2023-09-17T22:14:53.680Z,100309.69
2023-09-17T22:17:55.360Z,100303.03
2023-09-17T22:21:06.634Z,100292.56
2023-09-17T22:24:08.671Z,100301.66
2023-09-17T22:27:10.382Z,100298.97
2023-09-17T22:30:12.992Z,100299.38
2023-09-17T22:33:14.708Z,100296.03
2023-09-17T22:36:17.916Z,100294.53
2023-09-17T22:39:19.670Z,100294.63
2023-09-17T22:42:21.438Z,100295.00
2023-09-17T22:45:24.470Z,100293.56
2023-09-17T22:48:26.128Z,100293.31
2023-09-17T22:51:29.212Z,100296.19
2023-09-17T22:54:30.993Z,100298.06
2023-09-17T22:57:32.739Z,100286.97
2023-09-17T23:00:34.508Z,100284.84
2023-09-17T23:03:36.229Z,100289.69
2023-09-17T23:06:39.373Z,100285.34
2023-09-17T23:09:41.060Z,100289.19
2023-09-17T23:12:42.713Z,100292.63
2023-09-17T23:15:44.414Z,100295.47
2023-09-17T23:18:46.174Z,100287.16
2023-09-17T23:21:49.317Z,100285.72
2023-09-17T23:24:51.069Z,100297.72
2023-09-17T23:27:52.907Z,100296.88
2023-09-17T23:30:54.617Z,100293.13
2023-09-17T23:33:56.323Z,100293.69
2023-09-17T23:36:59.400Z,100288.75
2023-09-17T23:40:01.185Z,100294.63
2023-09-17T23:43:03.076Z,100289.94
2023-09-17T23:46:04.832Z,100293.66
2023-09-17T23:49:06.561Z,100291.06
2023-09-17T23:52:09.741Z,100283.63
2023-09-17T23:55:11.833Z,100284.69
2023-09-17T23:58:13.546Z,100290.72
